Nearby METAR Reports

 

CYYJ - Victoria Intl Ar, British Columbia, Canada
Distance from station: N 6km
Updated: 28/01/2022 20:18
Mist, Mostly cloudy
Mist, Mostly cloudy
 Wind from W
Wind: W 6 km/h
Temperature: 2°C
Dew Point: 2°C
Humidity: 100%
Barometer: 1025.1 hPa
Summary: Mist
Clouds: Mostly cloudy
Visibility: 2 km
Cloud details: Mostly cloudy 183 m
2022/01/29 04:18 CYYJ 290418Z 27003KT 150V290 1 1/4SM BR BKN006 02/02 A3027 RMK ST7 SLP254
CWKH - Malahat (autob), British Columbia, Canada
Distance from station: WSW 10km
Updated: 28/01/2022 20:00

 
Temperature: 3°C
Dew Point: -1°C
Humidity: 75%
2022/01/29 04:00 CWKH 290400Z AUTO 03/M01 RMK AO1 SLP236 T00301009 55000
 
CWPF - Esquimalt Metoc, British Columbia, Canada
Distance from station: S 18km
Updated: 28/01/2022 20:45

 Wind from N
Wind: N 7 km/h
Temperature: 2°C
Wind Chill: 0°C
Dew Point: 1°C
Humidity: 93%
2022/01/29 04:45 CWPF 290445Z AUTO 01004KT 02/01 RMK AO1 SLP250 T00170010 53001
CWYJ - Victoria Univ, British Columbia, Canada
Distance from station: SSE 18km
Updated: 28/01/2022 20:00

 Wind from SSE
Wind: SSE 4 km/h
Temperature: 4°C
Dew Point: 3°C
Humidity: 93%
2022/01/29 04:00 CWYJ 290400Z AUTO 16002KT 04/03 RMK AO1 SLP255 T00380034 53002
 
CYWH - Victoria Harbour, British Columbia, Canada
Distance from station: S 20km
Updated: 28/01/2022 20:00
Mostly cloudy
Mostly cloudy
 Wind from S
Wind: S 7 km/h
Temperature: 5°C
Wind Chill: 3°C
Dew Point: 4°C
Humidity: 93%
Barometer: 1025.4 hPa
Clouds: Mostly cloudy
Visibility: 13 km
Cloud details: Mostly cloudy 183 m
2022/01/29 04:00 CYWH 290400Z 17004KT 8SM BKN006 05/04 A3028 RMK SF6 VIS LWR W SLP256
CWLM - Victoria (autob), British Columbia, Canada
Distance from station: SSE 21km
Updated: 28/01/2022 20:00

 Wind from S
Wind: S 9 km/h
Temperature: 4°C
Wind Chill: 2°C
Dew Point: 3°C
Humidity: 93%
2022/01/29 04:00 CWLM 290400Z AUTO 19005KT 04/03 RMK AO1 SLP252 T00440031 53001
 
KFHR - Friday Harbor, Washington, USA
Distance from station: ESE 30km
Updated: 28/01/2022 19:53
Mist, Few clouds
Mist, Few clouds
 Wind from calm
Wind: Calm
Temperature: 1°C
Dew Point: 0°C
Humidity: 93%
Barometer: 1025.7 hPa
Summary: Mist
Clouds: Few Clouds
Visibility: 8 km
Cloud details: Few Clouds 396 m
2022/01/29 03:53 KFHR 290353Z AUTO 00000KT 5SM BR FEW013 01/00 A3029 RMK AO2 SLP259 T00060000 TSNO
CWQK - Race Rocks Autob, British Columbia, Canada
Distance from station: SSW 34km
Updated: 28/01/2022 20:00

 Wind from W
Wind: W 4 km/h
Temperature: 5°C
Dew Point: 4°C
Humidity: 93%
2022/01/29 04:00 CWQK 290400Z AUTO 26002KT 05/04 RMK AO1 SLP253 T00520041 53002
 
CWEZ - Saturna Isl (map, British Columbia, Canada
Distance from station: NE 35km
Updated: 28/01/2022 20:00

 Wind from SSW
Wind: SSW 24 km/h
Temperature: 4°C
Wind Chill: -1°C
Dew Point: 3°C
Humidity: 93%
2022/01/29 04:00 CWEZ 290400Z AUTO 21013KT 04/03 RMK AO1 SLP248 T00410029 55000
KORS - Eastsound/Orcas, Washington, USA
Distance from station: ENE 39km
Updated: 28/01/2022 20:35
Clear
Clear
 Wind from calm
Wind: Calm
Temperature: 4°C
Dew Point: 3°C
Humidity: 93%
Barometer: 1025.1 hPa
Clouds: Clear
Visibility: 16 km
2022/01/29 04:35 KORS 290435Z AUTO 00000KT 10SM CLR 04/03 A3027 RMK AO2
 
CWSP - Sheringham Autob, British Columbia, Canada
Distance from station: WSW 43km
Updated: 28/01/2022 20:00

 Wind from calm
Wind: Calm
Temperature: 4°C
Dew Point: 3°C
Humidity: 93%
2022/01/29 04:00 CWSP 290400Z AUTO 00000KT 04/03 RMK AO1 SLP254 T00440033 54000